sensor_id;sensor_type;location;lat;lon;timestamp;pressure;altitude;pressure_sealevel;temperature;humidity
68226;BME280;55045;49.410;11.030;2022-09-21T00:02:29;98989.38;;;3.92;100.00
68226;BME280;55045;49.410;11.030;2022-09-21T00:05:33;98982.59;;;3.82;100.00
68226;BME280;55045;49.410;11.030;2022-09-21T00:08:37;98986.09;;;3.71;100.00
68226;BME280;55045;49.410;11.030;2022-09-21T00:11:41;98966.53;;;3.58;100.00
68226;BME280;55045;49.410;11.030;2022-09-21T00:14:44;98983.53;;;3.67;100.00
68226;BME280;55045;49.410;11.030;2022-09-21T00:17:51;98992.09;;;3.69;100.00
68226;BME280;55045;49.410;11.030;2022-09-21T00:20:55;98992.19;;;3.55;100.00
68226;BME280;55045;49.410;11.030;2022-09-21T00:24:00;98965.88;;;3.24;100.00
68226;BME280;55045;49.410;11.030;2022-09-21T00:27:04;98986.28;;;3.41;100.00
68226;BME280;55045;49.410;11.030;2022-09-21T00:30:08;98958.16;;;3.26;100.00
68226;BME280;55045;49.410;11.030;2022-09-21T00:33:12;98984.50;;;3.58;100.00
68226;BME280;55045;49.410;11.030;2022-09-21T00:36:18;98973.56;;;3.27;100.00
68226;BME280;55045;49.410;11.030;2022-09-21T00:39:23;98984.59;;;3.38;100.00
68226;BME280;55045;49.410;11.030;2022-09-21T00:42:28;98984.38;;;3.73;100.00
68226;BME280;55045;49.410;11.030;2022-09-21T00:45:32;98986.31;;;3.35;100.00
68226;BME280;55045;49.410;11.030;2022-09-21T00:48:35;98993.81;;;3.65;100.00
68226;BME280;55045;49.410;11.030;2022-09-21T00:51:38;98997.72;;;4.15;100.00
68226;BME280;55045;49.410;11.030;2022-09-21T00:54:46;98990.63;;;3.27;100.00
68226;BME280;55045;49.410;11.030;2022-09-21T00:57:53;98983.69;;;3.50;100.00
68226;BME280;55045;49.410;11.030;2022-09-21T01:00:58;99000.41;;;4.03;100.00
68226;BME280;55045;49.410;11.030;2022-09-21T01:04:04;98988.81;;;3.49;100.00
68226;BME280;55045;49.410;11.030;2022-09-21T01:07:10;98996.56;;;3.36;100.00
68226;BME280;55045;49.410;11.030;2022-09-21T01:10:18;98988.03;;;3.37;100.00
68226;BME280;55045;49.410;11.030;2022-09-21T01:13:29;98994.91;;;3.31;100.00
68226;BME280;55045;49.410;11.030;2022-09-21T01:16:42;98992.34;;;3.26;100.00
68226;BME280;55045;49.410;11.030;2022-09-21T01:20:03;98997.50;;;3.22;100.00
68226;BME280;55045;49.410;11.030;2022-09-21T01:23:48;98994.00;;;3.35;100.00
68226;BME280;55045;49.410;11.030;2022-09-21T01:27:20;98996.66;;;3.21;100.00
68226;BME280;55045;49.410;11.030;2022-09-21T01:30:28;99000.09;;;3.14;100.00
68226;BME280;55045;49.410;11.030;2022-09-21T01:33:38;98991.53;;;3.16;100.00
68226;BME280;55045;49.410;11.030;2022-09-21T01:36:46;98989.94;;;2.91;100.00
68226;BME280;55045;49.410;11.030;2022-09-21T01:39:55;98964.44;;;2.57;100.00
68226;BME280;55045;49.410;11.030;2022-09-21T01:43:02;98990.00;;;2.79;100.00
68226;BME280;55045;49.410;11.030;2022-09-21T01:46:11;98993.38;;;2.84;100.00
68226;BME280;55045;49.410;11.030;2022-09-21T01:49:19;98996.84;;;2.68;100.00
68226;BME280;55045;49.410;11.030;2022-09-21T01:52:28;99001.06;;;2.82;100.00
68226;BME280;55045;49.410;11.030;2022-09-21T01:55:39;99009.59;;;2.89;100.00
68226;BME280;55045;49.410;11.030;2022-09-21T01:58:45;99002.78;;;2.80;100.00
68226;BME280;55045;49.410;11.030;2022-09-21T02:01:59;99007.06;;;2.80;100.00
68226;BME280;55045;49.410;11.030;2022-09-21T02:05:05;99013.91;;;2.70;100.00
68226;BME280;55045;49.410;11.030;2022-09-21T02:08:09;99014.78;;;2.65;100.00
68226;BME280;55045;49.410;11.030;2022-09-21T02:11:13;98975.53;;;2.56;100.00
68226;BME280;55045;49.410;11.030;2022-09-21T02:14:20;99017.34;;;2.62;100.00
68226;BME280;55045;49.410;11.030;2022-09-21T02:17:33;99005.44;;;2.42;100.00
68226;BME280;55045;49.410;11.030;2022-09-21T02:20:44;99005.44;;;2.48;100.00
68226;BME280;55045;49.410;11.030;2022-09-21T02:23:57;98979.00;;;2.13;100.00
68226;BME280;55045;49.410;11.030;2022-09-21T02:27:13;98999.47;;;2.31;100.00
68226;BME280;55045;49.410;11.030;2022-09-21T02:30:22;98963.66;;;2.22;100.00
68226;BME280;55045;49.410;11.030;2022-09-21T02:33:31;99005.47;;;2.27;100.00
68226;BME280;55045;49.410;11.030;2022-09-21T02:36:41;98982.41;;;2.13;100.00
68226;BME280;55045;49.410;11.030;2022-09-21T02:39:53;98985.84;;;2.20;100.00
68226;BME280;55045;49.410;11.030;2022-09-21T02:43:05;99003.75;;;2.29;100.00
68226;BME280;55045;49.410;11.030;2022-09-21T02:46:14;99005.44;;;2.48;100.00
68226;BME280;55045;49.410;11.030;2022-09-21T02:49:24;99009.72;;;2.36;100.00
68226;BME280;55045;49.410;11.030;2022-09-21T02:52:31;99004.59;;;2.28;100.00
68226;BME280;55045;49.410;11.030;2022-09-21T02:55:36;99011.44;;;2.35;100.00
68226;BME280;55045;49.410;11.030;2022-09-21T02:58:45;99005.44;;;2.48;100.00
68226;BME280;55045;49.410;11.030;2022-09-21T03:01:50;98918.47;;;1.90;100.00
68226;BME280;55045;49.410;11.030;2022-09-21T03:04:55;99007.94;;;2.64;100.00
68226;BME280;55045;49.410;11.030;2022-09-21T03:07:58;98973.78;;;2.63;100.00
68226;BME280;55045;49.410;11.030;2022-09-21T03:11:01;99002.81;;;2.68;100.00
68226;BME280;55045;49.410;11.030;2022-09-21T03:14:04;99004.47;;;2.89;100.00
68226;BME280;55045;49.410;11.030;2022-09-21T03:17:09;99011.31;;;2.88;100.00
68226;BME280;55045;49.410;11.030;2022-09-21T03:20:14;99012.13;;;2.92;100.00
68226;BME280;55045;49.410;11.030;2022-09-21T03:23:17;99014.59;;;3.16;100.00
68226;BME280;55045;49.410;11.030;2022-09-21T03:26:21;99021.72;;;4.14;100.00
68226;BME280;55045;49.410;11.030;2022-09-21T03:29:24;99018.03;;;3.18;100.00
68226;BME280;55045;49.410;11.030;2022-09-21T03:35:08;99027.38;;;3.29;100.00
68226;BME280;55045;49.410;11.030;2022-09-21T03:38:11;99019.59;;;3.50;100.00
68226;BME280;55045;49.410;11.030;2022-09-21T03:41:15;99023.97;;;3.24;100.00
68226;BME280;55045;49.410;11.030;2022-09-21T03:44:19;99035.63;;;3.83;100.00
68226;BME280;55045;49.410;11.030;2022-09-21T03:47:23;99021.53;;;2.98;100.00
68226;BME280;55045;49.410;11.030;2022-09-21T03:50:28;99011.94;;;3.39;100.00
68226;BME280;55045;49.410;11.030;2022-09-21T03:53:31;99014.34;;;3.67;100.00
68226;BME280;55045;49.410;11.030;2022-09-21T03:56:34;99017.25;;;2.92;0.00
68226;BME280;55045;49.410;11.030;2022-09-21T03:59:38;98963.56;;;2.60;0.00
68226;BME280;55045;49.410;11.030;2022-09-21T04:02:41;98999.38;;;2.80;0.00
68226;BME280;55045;49.410;11.030;2022-09-21T04:05:45;99000.22;;;2.76;0.00
68226;BME280;55045;49.410;11.030;2022-09-21T04:08:49;99023.31;;;2.70;0.00
68226;BME280;55045;49.410;11.030;2022-09-21T04:11:54;99026.72;;;2.66;0.00
68226;BME280;55045;49.410;11.030;2022-09-21T04:14:57;99028.44;;;2.68;0.00
68226;BME280;55045;49.410;11.030;2022-09-21T04:18:00;99027.56;;;2.71;0.00
68226;BME280;55045;49.410;11.030;2022-09-21T04:21:05;99033.50;;;2.88;0.00
68226;BME280;55045;49.410;11.030;2022-09-21T04:24:08;99024.09;;;2.90;0.00
68226;BME280;55045;49.410;11.030;2022-09-21T04:27:12;99034.41;;;2.76;0.00
68226;BME280;55045;49.410;11.030;2022-09-21T04:30:15;99034.41;;;2.69;0.00
68226;BME280;55045;49.410;11.030;2022-09-21T04:33:19;99041.22;;;2.76;0.00
68226;BME280;55045;49.410;11.030;2022-09-21T04:36:26;99045.28;;;3.39;0.00
68226;BME280;55045;49.410;11.030;2022-09-21T04:39:36;99039.50;;;2.87;0.00
68226;BME280;55045;49.410;11.030;2022-09-21T04:42:40;99054.88;;;2.87;0.00
68226;BME280;55045;49.410;11.030;2022-09-21T04:45:43;99052.25;;;3.04;0.00
68226;BME280;55045;49.410;11.030;2022-09-21T04:48:47;99060.59;;;3.52;0.00
68226;BME280;55045;49.410;11.030;2022-09-21T04:51:53;99067.66;;;2.92;0.00
68226;BME280;55045;49.410;11.030;2022-09-21T04:54:57;99065.94;;;2.94;0.00
68226;BME280;55045;49.410;11.030;2022-09-21T04:58:00;99065.00;;;3.22;0.00
68226;BME280;55045;49.410;11.030;2022-09-21T05:01:07;99068.41;;;3.23;0.00
68226;BME280;55045;49.410;11.030;2022-09-21T05:04:10;99076.16;;;3.06;0.00
68226;BME280;55045;49.410;11.030;2022-09-21T05:07:15;99070.22;;;2.98;0.00
68226;BME280;55045;49.410;11.030;2022-09-21T05:10:18;99069.34;;;2.99;0.00
68226;BME280;55045;49.410;11.030;2022-09-21T05:13:20;99071.78;;;3.40;0.00
68226;BME280;55045;49.410;11.030;2022-09-21T05:16:23;99075.25;;;3.24;0.00
68226;BME280;55045;49.410;11.030;2022-09-21T05:19:27;99076.06;;;3.33;0.00
68226;BME280;55045;49.410;11.030;2022-09-21T05:22:31;99074.34;;;3.35;0.00
68226;BME280;55045;49.410;11.030;2022-09-21T05:25:35;99078.66;;;3.23;0.00
68226;BME280;55045;49.410;11.030;2022-09-21T05:28:38;99072.66;;;3.37;0.00
68226;BME280;55045;49.410;11.030;2022-09-21T05:31:46;99090.59;;;3.31;0.00
68226;BME280;55045;49.410;11.030;2022-09-21T05:34:58;99087.22;;;3.29;0.00
68226;BME280;55045;49.410;11.030;2022-09-21T05:38:09;99097.41;;;3.40;0.00
68226;BME280;55045;49.410;11.030;2022-09-21T05:41:15;99096.50;;;3.53;0.00
68226;BME280;55045;49.410;11.030;2022-09-21T05:44:19;99063.28;;;3.29;0.00
68226;BME280;55045;49.410;11.030;2022-09-21T05:47:27;99095.78;;;3.21;0.00
68226;BME280;55045;49.410;11.030;2022-09-21T05:50:45;99102.47;;;3.61;0.00
68226;BME280;55045;49.410;11.030;2022-09-21T05:53:56;99105.13;;;3.38;0.00
68226;BME280;55045;49.410;11.030;2022-09-21T05:57:10;99112.81;;;3.34;0.00
68226;BME280;55045;49.410;11.030;2022-09-21T06:00:20;99107.66;;;3.37;0.00
68226;BME280;55045;49.410;11.030;2022-09-21T06:03:26;99120.41;;;3.63;0.00
68226;BME280;55045;49.410;11.030;2022-09-21T06:06:30;99119.53;;;3.68;0.00
68226;BME280;55045;49.410;11.030;2022-09-21T06:09:35;99105.00;;;3.66;0.00
68226;BME280;55045;49.410;11.030;2022-09-21T06:12:44;99113.56;;;3.57;0.00
68226;BME280;55045;49.410;11.030;2022-09-21T06:15:47;99118.78;;;3.40;0.00
68226;BME280;55045;49.410;11.030;2022-09-21T06:18:50;99118.66;;;3.66;0.00
68226;BME280;55045;49.410;11.030;2022-09-21T06:21:54;99126.44;;;3.53;0.00
68226;BME280;55045;49.410;11.030;2022-09-21T06:24:58;99128.00;;;3.83;0.00
68226;BME280;55045;49.410;11.030;2022-09-21T06:28:02;99129.75;;;3.73;0.00
68226;BME280;55045;49.410;11.030;2022-09-21T06:31:05;99139.19;;;3.66;0.00
68226;BME280;55045;49.410;11.030;2022-09-21T06:34:08;99147.75;;;3.64;0.00
68226;BME280;55045;49.410;11.030;2022-09-21T06:37:12;99100.72;;;3.63;0.00
68226;BME280;55045;49.410;11.030;2022-09-21T06:40:16;99128.09;;;3.64;0.00
68226;BME280;55045;49.410;11.030;2022-09-21T06:43:20;99150.31;;;3.65;0.00
68226;BME280;55045;49.410;11.030;2022-09-21T06:46:23;99154.47;;;3.94;0.00
68226;BME280;55045;49.410;11.030;2022-09-21T06:49:27;99154.53;;;3.75;0.00
68226;BME280;55045;49.410;11.030;2022-09-21T06:52:30;99152.75;;;3.96;0.00
68226;BME280;55045;49.410;11.030;2022-09-21T06:55:35;99151.97;;;3.82;0.00
68226;BME280;55045;49.410;11.030;2022-09-21T06:58:38;99158.72;;;3.98;0.00
68226;BME280;55045;49.410;11.030;2022-09-21T07:01:42;99160.28;;;4.23;0.00
68226;BME280;55045;49.410;11.030;2022-09-21T07:04:46;99168.13;;;4.02;0.00
68226;BME280;55045;49.410;11.030;2022-09-21T07:07:49;99169.06;;;3.83;0.00
68226;BME280;55045;49.410;11.030;2022-09-21T07:10:58;99174.97;;;3.98;0.00
68226;BME280;55045;49.410;11.030;2022-09-21T07:14:01;99165.69;;;3.65;0.00
68226;BME280;55045;49.410;11.030;2022-09-21T07:17:06;99180.03;;;4.15;0.00
68226;BME280;55045;49.410;11.030;2022-09-21T07:20:10;99175.91;;;3.84;0.00
68226;BME280;55045;49.410;11.030;2022-09-21T07:23:14;99184.53;;;3.61;0.00
68226;BME280;55045;49.410;11.030;2022-09-21T07:26:20;99186.16;;;3.84;0.00
68226;BME280;55045;49.410;11.030;2022-09-21T07:29:23;99192.19;;;3.75;0.00
68226;BME280;55045;49.410;11.030;2022-09-21T07:32:27;99190.22;;;4.32;0.00
68226;BME280;55045;49.410;11.030;2022-09-21T07:35:32;99196.84;;;4.59;0.00
68226;BME280;55045;49.410;11.030;2022-09-21T07:38:36;99197.13;;;4.19;0.00
68226;BME280;55045;49.410;11.030;2022-09-21T07:41:42;99191.16;;;4.14;0.00
68226;BME280;55045;49.410;11.030;2022-09-21T07:44:48;99169.66;;;4.33;0.00
68226;BME280;55045;49.410;11.030;2022-09-21T07:47:52;99198.78;;;4.31;0.00
68226;BME280;55045;49.410;11.030;2022-09-21T07:51:00;99202.88;;;4.56;0.00
68226;BME280;55045;49.410;11.030;2022-09-21T07:54:08;99209.00;;;4.37;0.00
68226;BME280;55045;49.410;11.030;2022-09-21T07:57:13;99203.78;;;4.51;0.00
68226;BME280;55045;49.410;11.030;2022-09-21T08:00:34;99177.31;;;4.40;0.00
68226;BME280;55045;49.410;11.030;2022-09-21T08:03:38;99210.72;;;4.35;0.00
68226;BME280;55045;49.410;11.030;2022-09-21T08:06:42;99214.72;;;4.77;0.00
68226;BME280;55045;49.410;11.030;2022-09-21T08:09:45;99209.66;;;4.71;0.00
68226;BME280;55045;49.410;11.030;2022-09-21T08:12:51;99216.44;;;4.78;0.00
68226;BME280;55045;49.410;11.030;2022-09-21T08:15:58;99214.28;;;5.29;0.00
68226;BME280;55045;49.410;11.030;2022-09-21T08:19:03;99188.00;;;4.98;0.00
68226;BME280;55045;49.410;11.030;2022-09-21T08:22:07;99199.66;;;5.34;0.00
68226;BME280;55045;49.410;11.030;2022-09-21T08:25:12;99225.97;;;5.61;0.00
68226;BME280;55045;49.410;11.030;2022-09-21T08:28:16;99216.09;;;5.18;0.00
68226;BME280;55045;49.410;11.030;2022-09-21T08:31:21;99216.34;;;5.78;0.00
68226;BME280;55045;49.410;11.030;2022-09-21T08:34:25;99225.72;;;5.82;0.00
68226;BME280;55045;49.410;11.030;2022-09-21T08:37:31;99221.97;;;5.34;0.00
68226;BME280;55045;49.410;11.030;2022-09-21T08:40:39;99221.81;;;5.47;0.00
68226;BME280;55045;49.410;11.030;2022-09-21T08:43:47;99231.41;;;5.30;0.00
68226;BME280;55045;49.410;11.030;2022-09-21T08:46:59;99225.19;;;5.56;0.00
68226;BME280;55045;49.410;11.030;2022-09-21T08:50:15;99226.06;;;5.52;0.00
68226;BME280;55045;49.410;11.030;2022-09-21T08:53:25;99237.66;;;5.89;0.00
68226;BME280;55045;49.410;11.030;2022-09-21T08:56:32;99225.13;;;6.34;0.00
68226;BME280;55045;49.410;11.030;2022-09-21T08:59:59;99221.56;;;6.44;0.00
68226;BME280;55045;49.410;11.030;2022-09-21T09:03:17;99231.88;;;6.41;0.00
68226;BME280;55045;49.410;11.030;2022-09-21T09:06:29;99237.16;;;6.32;0.00
68226;BME280;55045;49.410;11.030;2022-09-21T09:09:48;99241.56;;;6.25;0.00
68226;BME280;55045;49.410;11.030;2022-09-21T09:13:03;99209.25;;;6.64;0.00
68226;BME280;55045;49.410;11.030;2022-09-21T09:16:17;99243.13;;;6.96;0.00
68226;BME280;55045;49.410;11.030;2022-09-21T09:19:26;99252.72;;;6.87;58.81
68226;BME280;55045;49.410;11.030;2022-09-21T09:22:36;99237.81;;;7.05;100.00
68226;BME280;55045;49.410;11.030;2022-09-21T09:25:43;99253.03;;;7.71;100.00
68226;BME280;55045;49.410;11.030;2022-09-21T09:28:52;99253.91;;;8.13;100.00
68226;BME280;55045;49.410;11.030;2022-09-21T09:35:18;99241.44;;;7.92;100.00
68226;BME280;55045;49.410;11.030;2022-09-21T09:38:26;99225.94;;;7.92;100.00
68226;BME280;55045;49.410;11.030;2022-09-21T09:41:57;99219.28;;;8.62;100.00
68226;BME280;55045;49.410;11.030;2022-09-21T09:45:21;99190.13;;;8.15;100.00
68226;BME280;55045;49.410;11.030;2022-09-21T09:48:36;99172.97;;;8.53;100.00
68226;BME280;55045;49.410;11.030;2022-09-21T09:51:45;99158.13;;;8.95;100.00
68226;BME280;55045;49.410;11.030;2022-09-21T09:54:50;99144.44;;;8.56;100.00
68226;BME280;55045;49.410;11.030;2022-09-21T09:57:54;99133.75;;;8.71;100.00
68226;BME280;55045;49.410;11.030;2022-09-21T10:00:59;99129.72;;;9.26;100.00
68226;BME280;55045;49.410;11.030;2022-09-21T10:04:04;99124.69;;;9.52;100.00
68226;BME280;55045;49.410;11.030;2022-09-21T10:07:18;99119.34;;;9.88;100.00
68226;BME280;55045;49.410;11.030;2022-09-21T10:10:23;99106.53;;;9.84;100.00
68226;BME280;55045;49.410;11.030;2022-09-21T10:13:30;99069.28;;;9.27;100.00
68226;BME280;55045;49.410;11.030;2022-09-21T10:16:39;99101.66;;;10.02;100.00
68226;BME280;55045;49.410;11.030;2022-09-21T10:19:43;99095.91;;;10.22;100.00
68226;BME280;55045;49.410;11.030;2022-09-21T10:22:52;99084.09;;;10.10;100.00
68226;BME280;55045;49.410;11.030;2022-09-21T10:26:01;99071.09;;;10.40;100.00
68226;BME280;55045;49.410;11.030;2022-09-21T10:29:17;99059.88;;;10.91;100.00
68226;BME280;55045;49.410;11.030;2022-09-21T10:32:24;99049.16;;;10.77;100.00
68226;BME280;55045;49.410;11.030;2022-09-21T10:35:27;99046.97;;;10.89;100.00
68226;BME280;55045;49.410;11.030;2022-09-21T10:38:32;99050.94;;;11.24;100.00
68226;BME280;55045;49.410;11.030;2022-09-21T10:41:37;99023.56;;;10.91;100.00
68226;BME280;55045;49.410;11.030;2022-09-21T10:44:43;99033.25;;;11.58;100.00
68226;BME280;55045;49.410;11.030;2022-09-21T10:47:48;99023.28;;;11.69;100.00
68226;BME280;55045;49.410;11.030;2022-09-21T10:50:54;99034.53;;;11.93;100.00
68226;BME280;55045;49.410;11.030;2022-09-21T10:53:59;99026.28;;;12.25;100.00
68226;BME280;55045;49.410;11.030;2022-09-21T10:57:06;99022.91;;;12.23;100.00
68226;BME280;55045;49.410;11.030;2022-09-21T11:00:26;99020.47;;;12.40;100.00
68226;BME280;55045;49.410;11.030;2022-09-21T11:03:40;99014.81;;;12.09;100.00
68226;BME280;55045;49.410;11.030;2022-09-21T11:06:48;99007.94;;;12.08;100.00
68226;BME280;55045;49.410;11.030;2022-09-21T11:09:58;99000.84;;;12.11;100.00
68226;BME280;55045;49.410;11.030;2022-09-21T11:13:17;99003.75;;;12.04;100.00
68226;BME280;55045;49.410;11.030;2022-09-21T11:16:28;98995.53;;;11.93;100.00
68226;BME280;55045;49.410;11.030;2022-09-21T11:19:37;98988.66;;;12.75;100.00
68226;BME280;55045;49.410;11.030;2022-09-21T11:22:48;98985.16;;;12.13;100.00
68226;BME280;55045;49.410;11.030;2022-09-21T11:26:05;98958.78;;;12.63;100.00
68226;BME280;55045;49.410;11.030;2022-09-21T11:29:17;98983.91;;;12.44;100.00
68226;BME280;55045;49.410;11.030;2022-09-21T11:32:38;98984.97;;;12.60;100.00
68226;BME280;55045;49.410;11.030;2022-09-21T11:35:57;98975.84;;;13.30;100.00
68226;BME280;55045;49.410;11.030;2022-09-21T11:39:11;98979.00;;;12.97;100.00
68226;BME280;55045;49.410;11.030;2022-09-21T11:42:32;98978.25;;;13.14;100.00
68226;BME280;55045;49.410;11.030;2022-09-21T11:45:57;98972.66;;;13.23;100.00
68226;BME280;55045;49.410;11.030;2022-09-21T11:49:16;98958.22;;;13.35;100.00
68226;BME280;55045;49.410;11.030;2022-09-21T11:52:39;98964.94;;;13.40;100.00
68226;BME280;55045;49.410;11.030;2022-09-21T11:56:14;98958.34;;;13.13;100.00
68226;BME280;55045;49.410;11.030;2022-09-21T11:59:41;98943.25;;;13.21;100.00
68226;BME280;55045;49.410;11.030;2022-09-21T12:06:37;98950.56;;;13.50;100.00
68226;BME280;55045;49.410;11.030;2022-09-21T12:09:59;98947.22;;;13.66;100.00
68226;BME280;55045;49.410;11.030;2022-09-21T12:13:19;98918.63;;;13.64;100.00
68226;BME280;55045;49.410;11.030;2022-09-21T12:16:36;98929.91;;;13.46;100.00
68226;BME280;55045;49.410;11.030;2022-09-21T12:19:45;98926.56;;;14.15;100.00
68226;BME280;55045;49.410;11.030;2022-09-21T12:22:54;98924.09;;;13.94;100.00
68226;BME280;55045;49.410;11.030;2022-09-21T12:26:00;98932.97;;;13.73;100.00
68226;BME280;55045;49.410;11.030;2022-09-21T12:29:11;98917.66;;;14.19;100.00
68226;BME280;55045;49.410;11.030;2022-09-21T12:32:24;98899.72;;;14.12;100.00
68226;BME280;55045;49.410;11.030;2022-09-21T12:35:34;98911.00;;;13.96;100.00
68226;BME280;55045;49.410;11.030;2022-09-21T12:38:44;98914.94;;;14.22;100.00
68226;BME280;55045;49.410;11.030;2022-09-21T12:41:53;98919.47;;;13.65;100.00
68226;BME280;55045;49.410;11.030;2022-09-21T12:45:06;98924.31;;;13.16;100.00
68226;BME280;55045;49.410;11.030;2022-09-21T12:48:25;98914.59;;;13.21;100.00
68226;BME280;55045;49.410;11.030;2022-09-21T12:51:33;98916.25;;;13.60;100.00
68226;BME280;55045;49.410;11.030;2022-09-21T12:54:41;98919.06;;;12.98;100.00
68226;BME280;55045;49.410;11.030;2022-09-21T12:57:53;98927.03;;;12.75;100.00
68226;BME280;55045;49.410;11.030;2022-09-21T13:01:24;98920.13;;;12.74;100.00
68226;BME280;55045;49.410;11.030;2022-09-21T13:04:40;98904.28;;;12.99;100.00
68226;BME280;55045;49.410;11.030;2022-09-21T13:08:02;98911.75;;;13.44;100.00
68226;BME280;55045;49.410;11.030;2022-09-21T13:11:10;98907.63;;;13.58;100.00
68226;BME280;55045;49.410;11.030;2022-09-21T13:14:14;98902.31;;;13.95;100.00
68226;BME280;55045;49.410;11.030;2022-09-21T13:17:20;98892.78;;;13.77;100.00
68226;BME280;55045;49.410;11.030;2022-09-21T13:20:32;98890.03;;;13.97;100.00
68226;BME280;55045;49.410;11.030;2022-09-21T13:23:37;98886.69;;;14.12;100.00
68226;BME280;55045;49.410;11.030;2022-09-21T13:26:50;98864.97;;;13.95;100.00
68226;BME280;55045;49.410;11.030;2022-09-21T13:30:20;98884.16;;;13.58;100.00
68226;BME280;55045;49.410;11.030;2022-09-21T13:33:36;98883.66;;;13.68;100.00
68226;BME280;55045;49.410;11.030;2022-09-21T13:36:43;98882.69;;;14.23;100.00
68226;BME280;55045;49.410;11.030;2022-09-21T13:39:53;98883.31;;;13.57;100.00
68226;BME280;55045;49.410;11.030;2022-09-21T13:43:20;98886.84;;;13.39;100.00
68226;BME280;55045;49.410;11.030;2022-09-21T13:46:49;98882.16;;;13.45;100.00
68226;BME280;55045;49.410;11.030;2022-09-21T13:49:55;98883.22;;;13.41;100.00
68226;BME280;55045;49.410;11.030;2022-09-21T13:53:05;98872.72;;;13.43;100.00
68226;BME280;55045;49.410;11.030;2022-09-21T13:56:17;98860.88;;;13.54;100.00
68226;BME280;55045;49.410;11.030;2022-09-21T13:59:23;98866.19;;;13.88;100.00
68226;BME280;55045;49.410;11.030;2022-09-21T14:02:31;98855.53;;;13.92;100.00
68226;BME280;55045;49.410;11.030;2022-09-21T14:05:40;98861.44;;;13.61;100.00
68226;BME280;55045;49.410;11.030;2022-09-21T14:08:50;98836.81;;;13.49;100.00
68226;BME280;55045;49.410;11.030;2022-09-21T14:11:57;98867.72;;;13.74;100.00
68226;BME280;55045;49.410;11.030;2022-09-21T14:18:35;98838.13;;;14.10;100.00
68226;BME280;55045;49.410;11.030;2022-09-21T14:21:39;98838.81;;;14.13;100.00
68226;BME280;55045;49.410;11.030;2022-09-21T14:24:45;98820.31;;;13.66;100.00
68226;BME280;55045;49.410;11.030;2022-09-21T14:27:50;98853.44;;;14.16;100.00
68226;BME280;55045;49.410;11.030;2022-09-21T14:30:57;98843.88;;;13.82;100.00
68226;BME280;55045;49.410;11.030;2022-09-21T14:34:03;98854.28;;;14.51;100.00
68226;BME280;55045;49.410;11.030;2022-09-21T14:37:22;98853.06;;;14.24;100.00
68226;BME280;55045;49.410;11.030;2022-09-21T14:40:31;98839.28;;;14.04;100.00
68226;BME280;55045;49.410;11.030;2022-09-21T14:43:37;98842.19;;;13.98;100.00
68226;BME280;55045;49.410;11.030;2022-09-21T14:47:03;98846.03;;;13.91;100.00
68226;BME280;55045;49.410;11.030;2022-09-21T14:50:22;98836.91;;;13.82;100.00
68226;BME280;55045;49.410;11.030;2022-09-21T14:53:41;98833.91;;;13.73;100.00
68226;BME280;55045;49.410;11.030;2022-09-21T14:56:55;98821.69;;;13.56;100.00
68226;BME280;55045;49.410;11.030;2022-09-21T15:00:14;98843.25;;;13.60;100.00
68226;BME280;55045;49.410;11.030;2022-09-21T15:03:44;98845.69;;;13.08;100.00
68226;BME280;55045;49.410;11.030;2022-09-21T15:06:59;98823.41;;;13.02;100.00
68226;BME280;55045;49.410;11.030;2022-09-21T15:10:34;98796.94;;;12.92;100.00
68226;BME280;55045;49.410;11.030;2022-09-21T15:14:15;98821.63;;;13.40;100.00
68226;BME280;55045;49.410;11.030;2022-09-21T15:17:24;98830.38;;;12.64;100.00
68226;BME280;55045;49.410;11.030;2022-09-21T15:20:30;98834.06;;;12.39;100.00
68226;BME280;55045;49.410;11.030;2022-09-21T15:23:38;98832.66;;;12.32;100.00
68226;BME280;55045;49.410;11.030;2022-09-21T15:26:41;98831.41;;;12.41;100.00
68226;BME280;55045;49.410;11.030;2022-09-21T15:29:47;98833.31;;;12.37;100.00
68226;BME280;55045;49.410;11.030;2022-09-21T15:35:16;98783.59;;;13.36;100.00
68226;BME280;55045;49.410;11.030;2022-09-21T15:38:30;98821.78;;;13.00;100.00
68226;BME280;55045;49.410;11.030;2022-09-21T15:41:38;98813.16;;;13.35;100.00
68226;BME280;55045;49.410;11.030;2022-09-21T15:44:41;98810.56;;;13.35;100.00
68226;BME280;55045;49.410;11.030;2022-09-21T15:47:46;98811.06;;;13.06;100.00
68226;BME280;55045;49.410;11.030;2022-09-21T15:50:55;98819.00;;;12.27;100.00
68226;BME280;55045;49.410;11.030;2022-09-21T15:54:07;98816.94;;;11.95;100.00
68226;BME280;55045;49.410;11.030;2022-09-21T15:57:31;98707.84;;;11.32;100.00
68226;BME280;55045;49.410;11.030;2022-09-21T16:00:49;98824.94;;;12.10;100.00
68226;BME280;55045;49.410;11.030;2022-09-21T16:04:02;98818.00;;;11.91;100.00
68226;BME280;55045;49.410;11.030;2022-09-21T16:07:24;98823.31;;;12.08;100.00
68226;BME280;55045;49.410;11.030;2022-09-21T16:10:37;98819.28;;;12.01;100.00
68226;BME280;55045;49.410;11.030;2022-09-21T16:13:41;98781.38;;;11.95;100.00
68226;BME280;55045;49.410;11.030;2022-09-21T16:17:20;98816.53;;;11.83;100.00
68226;BME280;55045;49.410;11.030;2022-09-21T16:20:24;98819.09;;;11.63;100.00
68226;BME280;55045;49.410;11.030;2022-09-21T16:23:29;98823.13;;;11.50;100.00
68226;BME280;55045;49.410;11.030;2022-09-21T16:26:34;98807.91;;;11.41;100.00
68226;BME280;55045;49.410;11.030;2022-09-21T16:29:39;98831.94;;;11.46;100.00
68226;BME280;55045;49.410;11.030;2022-09-21T16:32:44;98842.44;;;11.43;100.00
68226;BME280;55045;49.410;11.030;2022-09-21T16:35:47;98829.78;;;11.35;100.00
68226;BME280;55045;49.410;11.030;2022-09-21T16:38:53;98841.25;;;11.30;100.00
68226;BME280;55045;49.410;11.030;2022-09-21T16:42:00;98834.13;;;11.35;100.00
68226;BME280;55045;49.410;11.030;2022-09-21T16:45:06;98833.22;;;11.36;100.00
68226;BME280;55045;49.410;11.030;2022-09-21T16:48:12;98840.53;;;11.04;100.00